Time;durP1;ratioP1;P1;durP2;ratioP2;P2;SDS_P1;SDS_P2;PMS_P1;PMS_P2;Temp;Humidity;BMP_temperature;BMP_pressure;BME280_temperature;BME280_humidity;BME280_pressure;Samples;Min_cycle;Max_cycle;Signal;HPM_P1;HPM_P2
2022/01/13 00:00:51;;;;;;;23.98;9.05;;;5.50;99.90;;;;;;5114141;27;20048;-79
2022/01/13 00:03:17;;;;;;;20.42;7.85;;;5.50;99.90;;;;;;5111449;27;20722;-79
2022/01/13 00:05:43;;;;;;;16.73;6.75;;;5.90;99.90;;;;;;5112848;27;20522;-78
2022/01/13 00:08:09;;;;;;;18.73;7.57;;;5.50;99.90;;;;;;5113888;27;20044;-79
2022/01/13 00:10:35;;;;;;;20.00;8.43;;;5.50;99.90;;;;;;5099230;27;20043;-79
2022/01/13 00:13:06;;;;;;;24.50;8.38;;;5.50;99.90;;;;;;5091432;27;20040;-78
2022/01/13 00:18:14;;;;;;;25.05;8.43;;;5.40;99.90;;;;;;5115159;27;20486;-79
2022/01/13 00:26:17;;;;;;;12.80;5.45;;;5.50;99.90;;;;;;5114772;27;20036;-78
2022/01/13 00:28:45;;;;;;;20.05;8.60;;;5.40;99.90;;;;;;5100116;27;20048;-80
2022/01/13 00:31:11;;;;;;;15.90;7.03;;;5.50;99.90;;;;;;5111749;27;20965;-79
2022/01/13 00:33:43;;;;;;;13.57;7.32;;;5.40;99.90;;;;;;5111614;27;20046;-79
2022/01/13 00:36:09;;;;;;;22.00;9.25;;;5.90;99.90;;;;;;5111324;27;20111;-79
2022/01/13 00:38:34;;;;;;;23.17;9.70;;;5.40;99.90;;;;;;5116636;27;20048;-79
2022/01/13 00:41:00;;;;;;;18.73;6.00;;;5.40;99.90;;;;;;5112285;27;20492;-79
2022/01/13 00:43:26;;;;;;;17.33;8.32;;;5.70;99.90;;;;;;5096562;27;20031;-79
2022/01/13 00:45:52;;;;;;;14.60;6.63;;;5.40;99.90;;;;;;5096678;27;20039;-78
2022/01/13 00:48:18;;;;;;;19.95;8.73;;;5.40;99.90;;;;;;5116732;27;20160;-78
2022/01/13 00:50:44;;;;;;;18.38;6.25;;;5.40;99.90;;;;;;5096027;27;20198;-78
2022/01/13 00:53:10;;;;;;;20.27;8.95;;;5.40;99.90;;;;;;5107587;27;20039;-79
2022/01/13 00:55:50;;;;;;;12.70;4.93;;;5.40;99.90;;;;;;5095299;27;20477;-78
2022/01/13 00:58:17;;;;;;;18.85;7.80;;;5.40;99.90;;;;;;5109368;27;20039;-79
2022/01/13 01:00:44;;;;;;;20.08;6.10;;;5.40;99.90;;;;;;5093792;27;20043;-79
2022/01/13 01:03:10;;;;;;;19.92;7.00;;;5.50;99.90;;;;;;5110876;27;20035;-79
2022/01/13 01:05:36;;;;;;;19.95;6.68;;;5.40;99.90;;;;;;5110736;27;20098;-80
2022/01/13 01:08:06;;;;;;;16.00;5.80;;;5.40;99.90;;;;;;5096804;27;20047;-79
2022/01/13 01:10:33;;;;;;;17.73;5.80;;;5.40;99.90;;;;;;5093259;27;20042;-80
2022/01/13 01:12:59;;;;;;;15.85;6.13;;;5.70;99.90;;;;;;5113420;27;20035;-79
2022/01/13 01:15:25;;;;;;;13.90;4.82;;;5.40;99.90;;;;;;5091797;27;20093;-79
2022/01/13 01:17:58;;;;;;;17.80;6.93;;;5.40;99.90;;;;;;5114593;27;20547;-79
2022/01/13 01:20:29;;;;;;;26.60;8.43;;;5.40;99.90;;;;;;5113728;27;20913;-80
2022/01/13 01:23:11;;;;;;;9.75;3.63;;;5.40;99.90;;;;;;5113254;27;20039;-79
2022/01/13 01:25:46;;;;;;;15.93;6.97;;;5.40;99.90;;;;;;5092324;27;20055;-79
2022/01/13 01:28:18;;;;;;;11.65;4.72;;;5.60;99.90;;;;;;5096422;27;20086;-80
2022/01/13 01:30:46;;;;;;;;;;;5.40;99.90;;;;;;5095286;27;20765;-79
2022/01/13 01:33:16;;;;;;;15.45;5.38;;;5.40;99.90;;;;;;5113614;27;19920;-80
2022/01/13 01:35:42;;;;;;;11.80;5.25;;;5.60;99.90;;;;;;5094947;27;20031;-80
2022/01/13 01:38:09;;;;;;;12.48;4.55;;;5.40;99.90;;;;;;5112112;27;20043;-79
2022/01/13 01:40:35;;;;;;;12.57;5.45;;;5.40;99.90;;;;;;5093625;27;20043;-79
2022/01/13 01:43:00;;;;;;;8.90;4.20;;;5.40;99.90;;;;;;5098268;27;20075;-79
2022/01/13 01:45:32;;;;;;;11.88;5.32;;;5.40;99.90;;;;;;5114809;27;20039;-79
2022/01/13 01:48:02;;;;;;;6.97;4.85;;;5.40;99.90;;;;;;5118318;27;20886;-80
2022/01/13 01:50:34;;;;;;;12.48;6.40;;;5.60;99.90;;;;;;5097784;27;20075;-79
2022/01/13 01:53:00;;;;;;;11.70;5.25;;;5.50;99.90;;;;;;5116230;27;20042;-79
2022/01/13 01:55:26;;;;;;;10.65;5.13;;;5.50;99.90;;;;;;5119014;27;20048;-79
2022/01/13 01:57:52;;;;;;;11.63;5.78;;;5.40;99.90;;;;;;5098908;27;20058;-79
2022/01/13 02:00:21;;;;;;;12.35;5.00;;;5.40;99.90;;;;;;5110972;27;20137;-79
2022/01/13 02:02:47;;;;;;;9.10;4.68;;;5.40;99.90;;;;;;5101481;27;20079;-79
2022/01/13 02:05:13;;;;;;;9.18;4.68;;;5.40;99.90;;;;;;5099397;27;20123;-79
2022/01/13 02:07:39;;;;;;;10.80;4.53;;;5.40;99.90;;;;;;5113630;27;20093;-79
2022/01/13 02:10:07;;;;;;;14.07;4.78;;;5.50;99.90;;;;;;5115421;27;20498;-79
2022/01/13 02:12:36;;;;;;;7.05;3.65;;;5.50;99.90;;;;;;5114019;27;20028;-79
2022/01/13 02:15:28;;;;;;;11.52;4.82;;;5.50;99.90;;;;;;5115314;27;20050;-79
2022/01/13 02:17:53;;;;;;;14.25;5.47;;;5.50;99.90;;;;;;5111319;27;20043;-79
2022/01/13 02:20:19;;;;;;;14.27;5.38;;;5.40;99.90;;;;;;5102297;27;20044;-79
2022/01/13 02:22:45;;;;;;;12.32;4.97;;;5.50;99.90;;;;;;5115051;27;20040;-79
2022/01/13 02:25:16;;;;;;;10.77;5.13;;;5.50;99.90;;;;;;5117740;27;20402;-79
2022/01/13 02:27:42;;;;;;;18.13;4.78;;;5.60;99.90;;;;;;5098116;27;20962;-79
2022/01/13 02:30:09;;;;;;;11.20;4.18;;;5.50;99.90;;;;;;5128909;27;20114;-79
2022/01/13 02:32:35;;;;;;;13.95;5.22;;;5.50;99.90;;;;;;5133743;27;20032;-79
2022/01/13 02:35:01;;;;;;;13.85;5.00;;;5.40;99.90;;;;;;5130813;27;21037;-79
2022/01/13 02:37:27;;;;;;;9.38;4.47;;;5.40;99.90;;;;;;5113885;27;20051;-79
2022/01/13 02:39:53;;;;;;;12.10;5.10;;;5.40;99.90;;;;;;5132094;27;20387;-79
2022/01/13 02:42:18;;;;;;;11.48;5.40;;;5.40;99.90;;;;;;5114342;27;20062;-79
2022/01/13 02:45:00;;;;;;;10.57;4.88;;;5.40;99.90;;;;;;5102808;27;20043;-80
2022/01/13 02:50:18;;;;;;;6.72;4.10;;;5.30;99.90;;;;;;5087831;27;20058;-79
2022/01/13 02:52:44;;;;;;;10.50;4.30;;;5.40;99.90;;;;;;5112459;27;20043;-78
2022/01/13 02:55:10;;;;;;;9.32;5.07;;;5.50;99.90;;;;;;5115999;27;20055;-79
2022/01/13 02:57:38;;;;;;;13.77;5.05;;;5.40;99.90;;;;;;5115502;27;20615;-79
2022/01/13 03:00:05;;;;;;;7.07;3.50;;;5.30;99.90;;;;;;5115887;27;20051;-78
2022/01/13 03:02:31;;;;;;;12.13;4.22;;;5.40;99.90;;;;;;5098933;27;20042;-79
2022/01/13 03:04:57;;;;;;;8.73;5.70;;;5.40;99.90;;;;;;5096679;27;20067;-79
2022/01/13 03:07:25;;;;;;;9.10;3.47;;;5.40;99.90;;;;;;5119994;27;20074;-79
2022/01/13 03:09:50;;;;;;;10.50;4.75;;;5.40;99.90;;;;;;5092797;27;20150;-79
2022/01/13 03:12:16;;;;;;;11.40;4.65;;;5.30;99.90;;;;;;5116162;27;20181;-79
2022/01/13 03:14:42;;;;;;;11.77;4.35;;;5.30;99.90;;;;;;5110636;27;20122;-79
2022/01/13 03:17:07;;;;;;;10.02;4.38;;;5.30;99.90;;;;;;5116015;27;20521;-79
2022/01/13 03:19:33;;;;;;;7.53;2.95;;;5.30;99.90;;;;;;5116904;27;20077;-78
2022/01/13 03:21:59;;;;;;;6.53;3.13;;;5.30;99.90;;;;;;5116374;27;20044;-79
2022/01/13 03:24:26;;;;;;;6.80;3.67;;;5.30;99.90;;;;;;5099691;27;20042;-79
2022/01/13 03:26:53;;;;;;;8.32;4.13;;;5.60;99.90;;;;;;5115715;27;20042;-79
2022/01/13 03:29:21;;;;;;;8.73;3.63;;;5.20;99.90;;;;;;5110405;27;20039;-79
2022/01/13 03:31:54;;;;;;;9.38;3.53;;;5.20;99.90;;;;;;5116127;27;20039;-79
2022/01/13 03:34:20;;;;;;;12.30;4.18;;;5.40;99.90;;;;;;5098205;27;20500;-79
2022/01/13 03:36:46;;;;;;;8.95;3.97;;;6.00;99.90;;;;;;5098693;27;20047;-80
2022/01/13 03:39:13;;;;;;;5.70;2.88;;;4.40;99.90;;;;;;5103216;27;20040;-80
2022/01/13 03:41:40;;;;;;;8.00;4.03;;;5.20;99.90;;;;;;5100719;27;20032;-80
2022/01/13 03:44:16;;;;;;;9.25;3.92;;;5.30;99.90;;;;;;5117975;27;20065;-80
2022/01/13 03:46:42;;;;;;;8.48;3.92;;;5.40;99.90;;;;;;5094115;27;20948;-80
2022/01/13 03:49:09;;;;;;;9.57;3.55;;;5.30;99.90;;;;;;5094770;27;20039;-79
2022/01/13 03:52:02;;;;;;;5.82;2.83;;;5.30;99.90;;;;;;5113698;27;20035;-79
2022/01/13 03:54:31;;;;;;;10.23;5.25;;;5.20;99.90;;;;;;5063616;27;20521;-80
2022/01/13 03:57:34;;;;;;;7.72;3.20;;;5.20;99.90;;;;;;5094259;27;20047;-79
2022/01/13 04:00:30;;;;;;;9.77;3.33;;;5.30;99.90;;;;;;5109362;27;21266;-80
2022/01/13 04:02:55;;;;;;;7.45;3.05;;;5.20;99.90;;;;;;5094609;27;20461;-80
2022/01/13 04:05:25;;;;;;;11.90;3.70;;;5.20;99.90;;;;;;5109758;27;20036;-80
2022/01/13 04:07:51;;;;;;;8.43;4.55;;;5.30;99.90;;;;;;5110974;27;20417;-80
2022/01/13 04:10:41;;;;;;;9.40;3.70;;;5.30;99.90;;;;;;5112954;27;20715;-80
2022/01/13 04:13:21;;;;;;;7.05;2.90;;;5.30;99.90;;;;;;5055230;27;20135;-79
2022/01/13 04:15:48;;;;;;;8.20;3.33;;;4.60;99.90;;;;;;5095539;27;20051;-79
2022/01/13 04:18:16;;;;;;;10.20;5.68;;;4.60;99.90;;;;;;5099529;27;20308;-79
2022/01/13 04:20:45;;;;;;;9.82;4.65;;;5.30;99.90;;;;;;5097224;27;20466;-80
2022/01/13 04:23:13;;;;;;;7.20;2.95;;;5.20;99.90;;;;;;5101516;27;20047;-79
2022/01/13 04:25:42;;;;;;;10.90;3.55;;;5.30;99.90;;;;;;5113884;27;20043;-80
2022/01/13 04:28:08;;;;;;;9.48;3.90;;;4.50;99.90;;;;;;5096453;27;20150;-79
2022/01/13 04:30:46;;;;;;;4.93;2.75;;;5.30;99.90;;;;;;5099237;27;20039;-78
2022/01/13 04:33:12;;;;;;;7.97;2.92;;;5.30;99.90;;;;;;5103010;27;20086;-78
2022/01/13 04:35:40;;;;;;;10.20;4.22;;;5.20;99.90;;;;;;5095785;27;20092;-79
2022/01/13 04:38:06;;;;;;;8.77;4.07;;;5.30;99.90;;;;;;5092204;27;20185;-79
2022/01/13 04:40:35;;;;;;;12.40;5.30;;;6.00;99.90;;;;;;5093949;27;20084;-80
2022/01/13 04:43:01;;;;;;;8.05;3.47;;;5.20;99.90;;;;;;5097656;27;20213;-79
2022/01/13 04:45:27;;;;;;;5.20;2.67;;;5.30;99.90;;;;;;5094923;27;20044;-79
2022/01/13 04:47:56;;;;;;;8.27;3.53;;;5.30;99.90;;;;;;5094718;27;20071;-79
2022/01/13 04:50:23;;;;;;;9.07;4.28;;;5.30;99.90;;;;;;5114581;27;20089;-79
2022/01/13 04:52:50;;;;;;;6.93;3.03;;;5.30;99.90;;;;;;5092465;27;20522;-79
2022/01/13 04:55:22;;;;;;;7.28;2.75;;;5.30;99.90;;;;;;5100229;27;20078;-79
2022/01/13 04:57:48;;;;;;;10.57;4.07;;;5.80;99.90;;;;;;5092352;27;20070;-79
2022/01/13 05:00:14;;;;;;;9.38;4.07;;;5.80;99.90;;;;;;5096211;27;20051;-79
2022/01/13 05:02:43;;;;;;;10.35;4.35;;;5.30;99.90;;;;;;5094792;27;22535;-79
2022/01/13 05:05:10;;;;;;;6.88;2.95;;;5.30;99.90;;;;;;5092375;27;20058;-79
2022/01/13 05:07:36;;;;;;;8.07;3.42;;;5.30;99.90;;;;;;5100628;27;20043;-79
2022/01/13 05:10:09;;;;;;;6.70;2.10;;;5.30;99.90;;;;;;5113862;27;20505;-79
2022/01/13 05:12:44;;;;;;;11.38;3.70;;;5.10;99.90;;;;;;5096762;27;20794;-80
2022/01/13 05:15:21;;;;;;;8.85;3.33;;;5.30;99.90;;;;;;5097059;27;20548;-79
2022/01/13 05:20:28;;;;;;;4.20;2.47;;;5.40;99.90;;;;;;5113188;27;20043;-79
2022/01/13 05:22:55;;;;;;;8.95;3.63;;;5.40;99.90;;;;;;5116884;27;20046;-79
2022/01/13 05:25:21;;;;;;;6.90;3.00;;;5.30;99.90;;;;;;5089371;27;20036;-79
2022/01/13 05:27:48;;;;;;;5.75;3.38;;;5.30;99.90;;;;;;5101047;27;20483;-79
2022/01/13 05:30:17;;;;;;;6.00;3.75;;;5.20;99.90;;;;;;5096978;27;20044;-79
2022/01/13 05:32:46;;;;;;;5.18;3.00;;;5.30;99.90;;;;;;5113167;27;20608;-79
2022/01/13 05:35:15;;;;;;;7.85;2.50;;;5.30;99.90;;;;;;5090531;27;20035;-80
2022/01/13 05:37:42;;;;;;;5.32;3.25;;;5.70;99.90;;;;;;5115069;27;20051;-80
2022/01/13 05:40:10;;;;;;;7.28;2.72;;;5.30;99.90;;;;;;5112742;27;20036;-80
2022/01/13 05:42:40;;;;;;;5.97;2.90;;;5.50;99.90;;;;;;5094544;27;20520;-81
2022/01/13 05:45:21;;;;;;;6.20;3.60;;;5.30;99.90;;;;;;5094021;27;20036;-79
2022/01/13 05:47:50;;;;;;;8.90;4.30;;;5.20;99.90;;;;;;5094516;27;20045;-79
2022/01/13 05:50:21;;;;;;;6.03;2.58;;;5.30;99.90;;;;;;5097305;27;20043;-83
2022/01/13 05:52:47;;;;;;;7.15;3.70;;;5.40;99.90;;;;;;5092286;27;20181;-78
2022/01/13 05:55:14;;;;;;;6.38;3.50;;;5.20;99.90;;;;;;5096461;27;20035;-80
2022/01/13 05:57:40;;;;;;;7.38;2.53;;;5.20;99.90;;;;;;5084984;27;20075;-79
2022/01/13 06:00:11;;;;;;;10.82;4.07;;;5.40;99.90;;;;;;5116528;27;20090;-79
2022/01/13 06:02:38;;;;;;;6.00;3.28;;;5.20;99.90;;;;;;5098944;27;20089;-78
2022/01/13 06:05:04;;;;;;;10.20;3.70;;;5.10;99.90;;;;;;5093402;27;20039;-79
2022/01/13 06:07:30;;;;;;;10.75;3.75;;;5.40;99.90;;;;;;5090076;27;20040;-78
2022/01/13 06:09:56;;;;;;;8.25;3.88;;;5.60;99.90;;;;;;5111922;27;20577;-79
2022/01/13 06:12:37;;;;;;;5.55;3.08;;;5.30;99.90;;;;;;5112948;27;20031;-79
2022/01/13 06:15:11;;;;;;;4.80;2.85;;;5.30;99.90;;;;;;5094965;27;20036;-78
2022/01/13 06:17:43;;;;;;;8.90;3.17;;;5.30;99.90;;;;;;5111675;27;20047;-78
2022/01/13 06:20:16;;;;;;;8.48;3.42;;;5.40;99.90;;;;;;5110546;27;20498;-79
2022/01/13 06:22:44;;;;;;;7.57;3.72;;;5.20;99.90;;;;;;5094153;27;20114;-79
2022/01/13 06:25:12;;;;;;;7.65;3.72;;;4.30;99.90;;;;;;5093009;27;20557;-79
2022/01/13 06:27:38;;;;;;;9.70;4.05;;;5.30;99.90;;;;;;5101706;27;20126;-79
2022/01/13 06:30:07;;;;;;;6.18;3.25;;;4.60;99.90;;;;;;5102233;27;20040;-79
2022/01/13 06:32:37;;;;;;;6.57;3.38;;;5.40;99.90;;;;;;5122604;27;20044;-78
2022/01/13 06:35:04;;;;;;;10.45;3.78;;;5.30;99.90;;;;;;5085119;27;20165;-79
2022/01/13 06:37:30;;;;;;;9.50;4.43;;;5.30;99.90;;;;;;5099593;27;20086;-82
2022/01/13 06:40:01;;;;;;;8.85;3.63;;;5.30;99.90;;;;;;5102652;27;20432;-81
2022/01/13 06:42:29;;;;;;;7.10;2.97;;;5.60;99.90;;;;;;5116193;27;20069;-83
2022/01/13 06:44:58;;;;;;;5.75;3.60;;;5.30;99.90;;;;;;5107103;27;20652;-80
2022/01/13 06:47:31;;;;;;;9.90;3.45;;;4.80;99.90;;;;;;5102790;27;20031;-80
2022/01/13 06:49:57;;;;;;;6.80;3.05;;;5.30;99.90;;;;;;5100075;27;20163;-79
2022/01/13 06:52:28;;;;;;;8.60;3.60;;;5.30;99.90;;;;;;5100810;27;20046;-79
2022/01/13 06:54:54;;;;;;;9.23;4.05;;;5.30;99.90;;;;;;5100624;27;20131;-79
2022/01/13 06:57:20;;;;;;;11.43;3.45;;;5.30;99.90;;;;;;5112379;27;20417;-78
2022/01/13 06:59:49;;;;;;;6.53;4.28;;;5.30;99.90;;;;;;5096993;27;20036;-78
2022/01/13 07:02:15;;;;;;;12.05;4.90;;;5.30;99.90;;;;;;5098398;27;20043;-78
2022/01/13 07:04:43;;;;;;;10.70;3.70;;;5.30;99.90;;;;;;5094065;27;20048;-79
2022/01/13 07:07:09;;;;;;;12.55;3.88;;;5.40;99.90;;;;;;5094791;27;20047;-78
2022/01/13 07:09:38;;;;;;;8.70;3.63;;;5.40;99.90;;;;;;5102865;27;20528;-79
2022/01/13 07:12:09;;;;;;;7.05;3.15;;;5.30;99.90;;;;;;5107915;27;20035;-79
2022/01/13 07:14:49;;;;;;;9.63;4.45;;;5.40;99.90;;;;;;5100415;27;20035;-79
2022/01/13 07:17:16;;;;;;;10.43;3.25;;;5.30;99.90;;;;;;5106572;27;20476;-79
2022/01/13 07:19:47;;;;;;;7.68;4.53;;;5.40;99.90;;;;;;5099450;27;20124;-79
2022/01/13 07:22:30;;;;;;;6.05;3.72;;;4.80;99.90;;;;;;5118014;27;20048;-81
2022/01/13 07:24:56;;;;;;;8.30;3.40;;;5.30;99.90;;;;;;5108339;27;20042;-79
2022/01/13 07:27:23;;;;;;;10.27;3.95;;;5.30;99.90;;;;;;5118895;27;20044;-79
2022/01/13 07:29:49;;;;;;;12.23;5.13;;;5.30;99.90;;;;;;5120925;27;20042;-80
2022/01/13 07:32:15;;;;;;;5.30;2.55;;;5.30;99.90;;;;;;5100616;27;20105;-79
2022/01/13 07:34:46;;;;;;;9.25;3.85;;;5.20;99.90;;;;;;5100238;27;20036;-79
2022/01/13 07:37:14;;;;;;;6.72;2.72;;;5.20;99.90;;;;;;5100966;27;21022;-79
2022/01/13 07:39:40;;;;;;;7.30;3.08;;;5.50;99.90;;;;;;5099098;27;20120;-79
2022/01/13 07:42:06;;;;;;;9.77;4.70;;;5.10;99.90;;;;;;5108882;27;20609;-79
2022/01/13 07:44:33;;;;;;;7.05;3.78;;;5.20;99.90;;;;;;5121929;27;20086;-79
2022/01/13 07:47:05;;;;;;;10.27;3.72;;;4.20;99.90;;;;;;5103806;27;20058;-79
2022/01/13 07:49:31;;;;;;;9.20;6.07;;;6.40;99.90;;;;;;5119163;27;20044;-79
2022/01/13 07:51:57;;;;;;;8.93;2.88;;;5.20;99.90;;;;;;5105684;27;20097;-79
2022/01/13 07:54:31;;;;;;;9.30;4.80;;;5.20;99.90;;;;;;5102219;27;20040;-79
2022/01/13 07:56:59;;;;;;;10.60;2.72;;;5.10;99.90;;;;;;5103242;27;20579;-79
2022/01/13 07:59:28;;;;;;;7.20;3.30;;;5.20;99.90;;;;;;5105410;27;20092;-80
2022/01/13 08:02:01;;;;;;;5.72;3.20;;;5.10;99.90;;;;;;5101079;27;20031;-79
2022/01/13 08:04:31;;;;;;;4.85;2.97;;;5.10;99.90;;;;;;5120917;27;20077;-79
2022/01/13 08:06:59;;;;;;;9.23;4.00;;;5.10;99.90;;;;;;5108312;27;20427;-79
2022/01/13 08:09:31;;;;;;;6.28;3.42;;;5.10;99.90;;;;;;5101914;27;20040;-79
2022/01/13 08:11:59;;;;;;;10.48;4.03;;;4.60;99.90;;;;;;5109079;27;20552;-80
2022/01/13 08:14:25;;;;;;;5.25;3.20;;;5.10;99.90;;;;;;5103797;27;20707;-80
2022/01/13 08:16:56;;;;;;;8.52;2.90;;;5.30;99.90;;;;;;5105993;27;20039;-80
2022/01/13 08:22:12;;;;;;;6.35;2.92;;;5.30;99.90;;;;;;5114633;27;20047;-80
2022/01/13 08:24:41;;;;;;;7.47;3.65;;;5.20;99.90;;;;;;5097774;27;20128;-79
2022/01/13 08:27:12;;;;;;;10.18;4.20;;;5.00;99.90;;;;;;5099049;27;20534;-80
2022/01/13 08:29:43;;;;;;;6.15;3.20;;;5.10;99.90;;;;;;5102793;27;20063;-80
2022/01/13 08:32:09;;;;;;;5.63;3.08;;;5.40;99.90;;;;;;5096067;27;20210;-79
2022/01/13 08:34:35;;;;;;;8.13;3.05;;;5.20;99.90;;;;;;5121388;27;20546;-80
2022/01/13 08:37:03;;;;;;;8.40;3.83;;;5.30;99.90;;;;;;5117379;27;20043;-80
2022/01/13 08:39:32;;;;;;;10.00;3.95;;;5.20;99.90;;;;;;5102913;27;20056;-79
2022/01/13 08:42:04;;;;;;;9.50;3.08;;;5.40;99.90;;;;;;5098861;27;20547;-79
2022/01/13 08:44:30;;;;;;;10.88;4.50;;;5.40;99.90;;;;;;5102713;27;20044;-80
2022/01/13 08:46:56;;;;;;;6.15;3.15;;;5.50;99.90;;;;;;5100664;27;20310;-80
2022/01/13 08:49:27;;;;;;;6.60;3.25;;;5.40;99.90;;;;;;5104972;27;20043;-80
2022/01/13 08:51:55;;;;;;;8.55;3.35;;;5.40;99.90;;;;;;5099340;27;20035;-79
2022/01/13 08:54:22;;;;;;;8.25;3.50;;;5.40;99.90;;;;;;5115600;27;20533;-80
2022/01/13 08:56:51;;;;;;;2.67;1.55;;;4.40;99.90;;;;;;5095216;27;20044;-80
2022/01/13 08:59:23;;;;;;;6.60;3.40;;;5.50;99.90;;;;;;5099065;27;20406;-79
2022/01/13 09:01:49;;;;;;;5.38;2.13;;;5.30;99.90;;;;;;5100088;27;20040;-80
2022/01/13 09:04:15;;;;;;;5.15;3.03;;;5.40;99.90;;;;;;5102831;27;20050;-81
2022/01/13 09:06:41;;;;;;;8.23;3.08;;;5.40;99.90;;;;;;5117686;27;20036;-80
2022/01/13 09:09:08;;;;;;;9.75;3.78;;;5.50;99.90;;;;;;5115314;27;20040;-81
2022/01/13 09:11:39;;;;;;;9.15;4.03;;;5.60;99.90;;;;;;5118987;27;20493;-80
2022/01/13 09:14:13;;;;;;;7.95;3.97;;;5.90;99.90;;;;;;5100928;27;20678;-80
2022/01/13 09:16:47;;;;;;;8.02;3.53;;;5.50;99.90;;;;;;5116875;27;20083;-80
2022/01/13 09:19:18;;;;;;;7.15;3.35;;;5.50;99.90;;;;;;5098708;27;20520;-80
2022/01/13 09:21:48;;;;;;;5.35;2.88;;;7.20;99.90;;;;;;5118560;27;20082;-80
2022/01/13 09:24:21;;;;;;;6.95;3.33;;;5.40;99.90;;;;;;5118445;27;20040;-79
2022/01/13 09:26:50;;;;;;;10.02;3.13;;;5.40;99.90;;;;;;5100269;27;20585;-79
2022/01/13 09:29:20;;;;;;;15.80;3.30;;;5.80;99.90;;;;;;5100742;27;20075;-80
2022/01/13 09:31:48;;;;;;;8.07;3.05;;;5.30;99.90;;;;;;5097118;27;20517;-80
2022/01/13 09:34:17;;;;;;;7.55;2.70;;;5.30;99.90;;;;;;5117570;27;20051;-79
2022/01/13 09:36:43;;;;;;;5.30;2.50;;;5.30;99.90;;;;;;5118725;27;20039;-79
2022/01/13 09:39:13;;;;;;;6.63;3.17;;;5.30;99.90;;;;;;5120365;27;20047;-80
2022/01/13 09:41:44;;;;;;;9.07;3.17;;;5.40;99.90;;;;;;5099190;27;20036;-80
2022/01/13 09:44:16;;;;;;;8.95;4.47;;;5.40;99.90;;;;;;5096475;27;20047;-79
2022/01/13 09:46:42;;;;;;;8.85;3.45;;;5.50;99.90;;;;;;5099093;27;20044;-79
2022/01/13 09:49:13;;;;;;;11.68;4.07;;;5.50;99.90;;;;;;5098144;27;20051;-79
2022/01/13 09:51:48;;;;;;;8.35;3.95;;;5.60;99.90;;;;;;5117931;27;20260;-80
2022/01/13 09:54:20;;;;;;;7.57;3.42;;;5.70;99.90;;;;;;5099725;27;20960;-80
2022/01/13 09:56:49;;;;;;;;;;;5.70;99.90;;;;;;5117404;27;20044;-79
2022/01/13 09:59:15;;;;;;;8.90;3.67;;;6.00;99.90;;;;;;5096491;27;19920;-80
2022/01/13 10:01:44;;;;;;;5.35;3.45;;;5.70;99.90;;;;;;5098085;27;20048;-80
2022/01/13 10:04:18;;;;;;;9.63;4.28;;;5.80;99.90;;;;;;5102200;27;20047;-80
2022/01/13 10:06:48;;;;;;;10.95;4.72;;;5.00;99.90;;;;;;5105055;27;20525;-80
2022/01/13 10:09:22;;;;;;;9.65;4.13;;;5.80;99.90;;;;;;5110984;27;20092;-81
2022/01/13 10:12:11;;;;;;;8.70;4.50;;;6.00;99.90;;;;;;5121821;27;20958;-80
2022/01/13 10:17:32;;;;;;;9.80;3.65;;;6.20;99.90;;;;;;5118172;27;20048;-80
2022/01/13 10:20:10;;;;;;;6.22;3.00;;;6.20;99.90;;;;;;5100619;27;20050;-80
2022/01/13 10:22:44;;;;;;;6.60;3.05;;;6.20;99.90;;;;;;5103743;27;20585;-80
2022/01/13 10:25:25;;;;;;;10.10;3.60;;;6.10;99.90;;;;;;5123049;27;20046;-81
2022/01/13 10:27:51;;;;;;;4.00;2.03;;;6.10;99.90;;;;;;5100820;27;20058;-80
2022/01/13 10:30:18;;;;;;;7.78;3.85;;;6.10;99.90;;;;;;5117827;27;20680;-81
2022/01/13 10:32:45;;;;;;;8.52;3.40;;;6.40;99.90;;;;;;5120585;27;20055;-80
2022/01/13 10:35:16;;;;;;;6.97;2.78;;;6.10;99.90;;;;;;5116407;27;20036;-81
2022/01/13 10:37:47;;;;;;;9.27;3.38;;;6.40;99.90;;;;;;5101933;27;20058;-81
2022/01/13 10:40:24;;;;;;;6.75;2.92;;;6.20;99.90;;;;;;5104100;27;20528;-80
2022/01/13 10:45:31;;;;;;;6.13;3.15;;;6.20;99.90;;;;;;5121565;27;20120;-81
2022/01/13 10:48:06;;;;;;;7.88;3.80;;;6.20;99.90;;;;;;5121005;27;20047;-81
2022/01/13 10:50:36;;;;;;;8.52;2.92;;;6.30;99.90;;;;;;5118885;27;20047;-81
2022/01/13 10:53:13;;;;;;;9.43;3.92;;;6.30;99.90;;;;;;5117936;27;20180;-81
2022/01/13 10:55:42;;;;;;;8.02;3.97;;;6.30;99.90;;;;;;5118943;27;21035;-82
2022/01/13 10:58:09;;;;;;;7.68;3.35;;;6.40;99.90;;;;;;5105204;27;20144;-82
2022/01/13 11:00:36;;;;;;;6.63;3.22;;;6.30;99.90;;;;;;5102282;27;20175;-81
2022/01/13 11:03:12;;;;;;;8.02;4.28;;;6.30;99.90;;;;;;5104014;27;20040;-82
2022/01/13 11:05:41;;;;;;;9.60;4.57;;;6.30;99.90;;;;;;5121469;27;20071;-81
2022/01/13 11:08:08;;;;;;;9.55;4.30;;;6.50;99.90;;;;;;5105565;27;20113;-81
2022/01/13 11:10:35;;;;;;;8.52;3.50;;;6.30;99.90;;;;;;5104171;27;20204;-81
2022/01/13 11:13:18;;;;;;;6.13;3.63;;;6.30;99.90;;;;;;5107898;27;20036;-89
2022/01/13 11:16:38;;;;;;;8.60;3.72;;;6.30;99.90;;;;;;5114449;27;20067;-93
2022/01/13 11:19:27;;;;;;;6.13;3.25;;;6.40;99.90;;;;;;5056965;27;20043;-87
2022/01/13 11:22:06;;;;;;;9.80;4.15;;;6.40;99.90;;;;;;5098066;27;20097;-81
2022/01/13 11:24:34;;;;;;;6.45;2.90;;;5.80;99.90;;;;;;5093834;27;20032;-81
2022/01/13 11:27:02;;;;;;;7.90;2.75;;;6.60;99.90;;;;;;5123400;27;20035;-83
2022/01/13 11:29:29;;;;;;;4.95;2.95;;;6.70;99.90;;;;;;5101091;27;20516;-79
2022/01/13 11:31:56;;;;;;;6.47;2.85;;;6.80;99.90;;;;;;5117195;27;20039;-76
2022/01/13 11:34:23;;;;;;;6.57;3.13;;;6.80;99.90;;;;;;5113578;27;20040;-78
2022/01/13 11:36:59;;;;;;;7.30;3.45;;;6.90;99.90;;;;;;5099452;27;20039;-85
2022/01/13 11:39:44;;;;;;;7.07;3.33;;;6.90;99.90;;;;;;5098709;27;20568;-75
2022/01/13 11:42:12;;;;;;;7.50;3.47;;;6.80;99.90;;;;;;5114531;27;20039;-75
2022/01/13 11:44:38;;;;;;;6.03;3.00;;;6.70;99.90;;;;;;5114027;27;21067;-77
2022/01/13 11:47:18;;;;;;;7.53;3.65;;;6.80;99.90;;;;;;5118996;27;20096;-75
2022/01/13 11:50:04;;;;;;;8.35;3.38;;;6.80;99.90;;;;;;5100019;27;20083;-75
2022/01/13 11:52:40;;;;;;;6.63;2.65;;;6.80;99.90;;;;;;5117067;27;20544;-75
2022/01/13 11:55:23;;;;;;;4.75;2.92;;;6.80;99.90;;;;;;5119629;27;20047;-75
2022/01/13 11:57:50;;;;;;;5.95;3.20;;;6.70;99.90;;;;;;5115133;27;20122;-74
2022/01/13 12:00:25;;;;;;;7.35;3.22;;;6.70;99.90;;;;;;5114042;27;20039;-74
2022/01/13 12:02:51;;;;;;;7.18;3.75;;;6.90;99.90;;;;;;5118971;27;20079;-75
2022/01/13 12:05:22;;;;;;;7.38;3.83;;;7.00;99.90;;;;;;5117700;27;20046;-75
2022/01/13 12:07:53;;;;;;;6.60;3.45;;;7.20;99.90;;;;;;5114908;27;20509;-76
2022/01/13 12:10:24;;;;;;;7.90;4.03;;;7.20;99.90;;;;;;5116899;27;20039;-76
2022/01/13 12:12:52;;;;;;;7.70;3.80;;;7.20;99.90;;;;;;5118356;27;20125;-76
2022/01/13 12:15:25;;;;;;;10.48;4.13;;;7.20;99.90;;;;;;5117521;27;20826;-77
2022/01/13 12:17:52;;;;;;;7.15;3.60;;;7.20;99.90;;;;;;5105281;27;20633;-76
2022/01/13 12:20:21;;;;;;;5.28;2.63;;;7.20;99.90;;;;;;5100816;27;20432;-76
2022/01/13 12:22:57;;;;;;;8.55;4.32;;;7.10;99.90;;;;;;5115494;27;20074;-78
2022/01/13 12:25:31;;;;;;;5.32;2.58;;;7.00;99.90;;;;;;5099616;27;20099;-76
2022/01/13 12:27:58;;;;;;;7.22;3.35;;;7.10;99.90;;;;;;5117744;27;20129;-76
2022/01/13 12:30:29;;;;;;;6.97;3.80;;;7.20;99.90;;;;;;5122393;27;20047;-76
2022/01/13 12:33:03;;;;;;;6.90;3.22;;;7.10;99.90;;;;;;5117975;27;20119;-76
2022/01/13 12:35:39;;;;;;;6.70;4.80;;;7.10;99.90;;;;;;5104285;27;21101;-76
2022/01/13 12:38:13;;;;;;;6.60;3.80;;;6.90;99.90;;;;;;5114805;27;20123;-78
2022/01/13 12:40:43;;;;;;;7.95;4.20;;;6.90;99.90;;;;;;5106894;27;20054;-77
2022/01/13 12:43:33;;;;;;;6.93;4.40;;;7.00;99.90;;;;;;5097081;27;20044;-76
2022/01/13 12:46:04;;;;;;;8.88;4.13;;;6.90;99.90;;;;;;5095853;27;20219;-76
2022/01/13 12:48:31;;;;;;;7.97;4.22;;;7.00;99.90;;;;;;5114145;27;20040;-77
2022/01/13 12:50:58;;;;;;;6.82;3.40;;;7.10;99.90;;;;;;5115621;27;20040;-76
2022/01/13 12:53:27;;;;;;;6.78;3.72;;;7.30;99.90;;;;;;5099302;27;20048;-76
2022/01/13 12:56:04;;;;;;;8.45;3.47;;;7.20;99.90;;;;;;5114000;27;20088;-76
2022/01/13 12:59:03;;;;;;;6.03;3.47;;;7.20;99.90;;;;;;5117436;27;20043;-77
2022/01/13 13:01:31;;;;;;;7.30;4.05;;;7.20;99.90;;;;;;5111611;27;20575;-76
2022/01/13 13:04:13;;;;;;;8.07;4.38;;;7.30;99.90;;;;;;5102451;27;20046;-76
2022/01/13 13:06:43;;;;;;;9.18;4.50;;;7.30;99.90;;;;;;5100418;27;20046;-77
2022/01/13 13:09:19;;;;;;;7.47;4.03;;;7.20;99.90;;;;;;5117806;27;20045;-76
2022/01/13 13:11:50;;;;;;;9.38;4.82;;;7.20;99.90;;;;;;5112555;27;20040;-76
2022/01/13 13:14:29;;;;;;;7.67;4.23;;;7.10;99.90;;;;;;5114365;27;20036;-77
2022/01/13 13:16:55;;;;;;;5.70;3.55;;;7.10;99.90;;;;;;5112712;27;20044;-76
2022/01/13 13:19:21;;;;;;;10.52;4.53;;;7.00;99.90;;;;;;5099768;27;20089;-76
2022/01/13 13:21:51;;;;;;;6.40;4.28;;;7.10;99.90;;;;;;5096172;27;20098;-76
2022/01/13 13:24:22;;;;;;;7.70;3.10;;;7.20;99.90;;;;;;5116349;27;20038;-76
2022/01/13 13:26:49;;;;;;;11.07;5.20;;;7.40;99.90;;;;;;5095618;27;20040;-76
2022/01/13 13:29:25;;;;;;;13.02;5.05;;;7.20;99.90;;;;;;5106849;27;20043;-76
2022/01/13 13:31:56;;;;;;;11.25;4.78;;;7.10;99.90;;;;;;5103799;27;20129;-76